Time;durP1;ratioP1;P1;durP2;ratioP2;P2;SDS_P1;SDS_P2;PMS_P1;PMS_P2;Temp;Humidity;BMP_temperature;BMP_pressure;BME280_temperature;BME280_humidity;BME280_pressure;Samples;Min_cycle;Max_cycle;Signal;HPM_P1;HPM_P2
2022/05/03 00:01:59;;;;;;;8.05;5.47;;;;;;;12.22;nan;-24158.22;4893145;29;20224;-73
2022/05/03 00:04:51;;;;;;;8.30;5.97;;;;;;;12.08;nan;-24154.41;4895844;29;20542;-74
2022/05/03 00:07:27;;;;;;;11.48;6.40;;;;;;;12.16;nan;-24156.66;4891530;29;20184;-74
2022/05/03 00:10:04;;;;;;;7.90;5.97;;;;;;;12.32;nan;-24161.16;4895877;29;21207;-73
2022/05/03 00:12:46;;;;;;;8.13;6.35;;;;;;;12.16;nan;-24156.66;4896408;29;20776;-73
2022/05/03 00:15:12;;;;;;;8.98;6.18;;;;;;;12.21;nan;-24158.06;4895142;29;20192;-73
2022/05/03 00:17:41;;;;;;;10.10;6.70;;;;;;;12.24;nan;-24158.91;4895865;29;20199;-74
2022/05/03 00:20:07;;;;;;;11.95;6.28;;;;;;;11.94;nan;-24150.59;4895872;29;20642;-73
2022/05/03 00:22:33;;;;;;;8.57;6.32;;;;;;;12.26;nan;-24159.47;4897475;29;20675;-73
2022/05/03 00:24:59;;;;;;;11.73;6.13;;;;;;;12.32;nan;-24161.16;4897270;29;20191;-75
2022/05/03 00:27:26;;;;;;;9.07;6.40;;;;;;;12.17;nan;-24156.78;4896228;29;20184;-73
2022/05/03 00:29:56;;;;;;;10.75;6.43;;;;;;;12.34;nan;-24161.59;4895950;29;20192;-74
2022/05/03 00:32:23;;;;;;;10.02;6.93;;;;;;;12.36;nan;-24162.16;4914649;29;20203;-74
2022/05/03 00:34:49;;;;;;;10.10;6.28;;;;;;;12.03;nan;-24152.84;4917011;29;20187;-74
2022/05/03 00:37:15;;;;;;;8.75;6.82;;;;;;;12.00;nan;-24152.16;4899270;29;20175;-74
2022/05/03 00:39:41;;;;;;;12.55;7.43;;;;;;;11.99;nan;-24151.88;4916144;29;20221;-74
2022/05/03 00:42:18;;;;;;;9.75;7.20;;;;;;;12.25;nan;-24159.06;4916288;29;20203;-74
2022/05/03 00:45:01;;;;;;;14.07;7.30;;;;;;;12.29;nan;-24160.31;4917017;29;20250;-73
2022/05/03 00:47:54;;;;;;;14.02;7.43;;;;;;;12.30;nan;-24160.59;4902262;29;20552;-73
2022/05/03 00:50:19;;;;;;;10.38;7.00;;;;;;;12.30;nan;-24160.59;4892873;29;20290;-74
2022/05/03 00:52:57;;;;;;;10.10;7.30;;;;;;;12.24;nan;-24158.78;4900852;29;20235;-74
2022/05/03 00:55:37;;;;;;;9.57;7.68;;;;;;;12.30;nan;-24160.47;4896893;29;20647;-74
2022/05/03 00:58:31;;;;;;;10.82;7.57;;;;;;;12.31;nan;-24160.75;4896817;29;20188;-74
2022/05/03 01:01:21;;;;;;;11.00;8.00;;;;;;;12.18;nan;-24157.22;4896688;29;20231;-73
2022/05/03 01:04:19;;;;;;;10.60;7.03;;;;;;;12.20;nan;-24157.66;4894025;29;20650;-72
2022/05/03 01:06:53;;;;;;;10.98;7.53;;;;;;;12.12;nan;-24155.53;4890740;29;20211;-73
2022/05/03 01:09:42;;;;;;;9.95;7.60;;;;;;;12.01;nan;-24152.28;4905930;29;20184;-73
2022/05/03 01:12:24;;;;;;;11.02;7.50;;;;;;;12.05;nan;-24153.56;4891972;29;20591;-74
2022/05/03 01:15:07;;;;;;;11.10;7.63;;;;;;;11.90;nan;-24149.34;4891058;29;20176;-74
2022/05/03 01:17:43;;;;;;;14.07;7.82;;;;;;;12.05;nan;-24153.41;4896343;29;20647;-73
2022/05/03 01:20:13;;;;;;;12.82;8.23;;;;;;;11.98;nan;-24151.59;4896972;29;20183;-73
2022/05/03 01:23:22;;;;;;;12.60;8.18;;;;;;;12.15;nan;-24156.38;4897072;29;20723;-73
2022/05/03 01:26:15;;;;;;;11.65;8.02;;;;;;;12.09;nan;-24154.69;4896219;29;20302;-75
2022/05/03 01:28:59;;;;;;;12.57;7.80;;;;;;;11.98;nan;-24151.59;4897059;29;20183;-73
2022/05/03 01:31:28;;;;;;;14.38;8.27;;;;;;;11.81;nan;-24146.94;4896990;29;20195;-72
2022/05/03 01:34:00;;;;;;;9.65;7.53;;;;;;;11.61;nan;-24141.31;4909409;29;20187;-73
2022/05/03 01:36:39;;;;;;;12.00;7.85;;;;;;;11.57;nan;-24140.03;4902095;29;20183;-73
2022/05/03 01:39:17;;;;;;;11.95;8.18;;;;;;;11.71;nan;-24143.97;4894794;29;20180;-74
2022/05/03 01:41:57;;;;;;;11.57;7.93;;;;;;;11.39;nan;-24135.25;4893605;29;20196;-73
2022/05/03 01:44:38;;;;;;;14.20;8.65;;;;;;;11.74;nan;-24144.84;4906946;29;20223;-73
2022/05/03 01:47:35;;;;;;;12.52;8.73;;;;;;;11.80;nan;-24146.53;4892016;29;20562;-72
2022/05/03 01:50:29;;;;;;;12.20;8.07;;;;;;;11.79;nan;-24146.25;4894751;29;20235;-73
2022/05/03 01:53:14;;;;;;;12.65;8.50;;;;;;;11.77;nan;-24145.81;4892722;29;20715;-73
2022/05/03 01:56:17;;;;;;;11.27;7.82;;;;;;;11.82;nan;-24147.09;4892026;29;21602;-73
2022/05/03 01:59:12;;;;;;;13.68;8.55;;;;;;;11.87;nan;-24148.63;4892961;29;20211;-73
2022/05/03 02:01:40;;;;;;;12.55;8.20;;;;;;;11.86;nan;-24148.34;4894812;29;20227;-73
2022/05/03 02:04:54;;;;;;;12.63;8.52;;;;;;;11.82;nan;-24147.09;4894799;29;20298;-72
2022/05/03 02:07:34;;;;;;;16.55;8.43;;;;;;;11.87;nan;-24148.50;4896024;29;20203;-73
2022/05/03 02:09:59;;;;;;;13.90;8.90;;;;;;;11.66;nan;-24142.56;4898546;29;20203;-74
2022/05/03 02:12:26;;;;;;;13.40;8.68;;;;;;;11.70;nan;-24143.69;4881881;29;20319;-73
2022/05/03 02:14:52;;;;;;;13.57;8.82;;;;;;;11.74;nan;-24144.97;4884817;29;20322;-75
2022/05/03 02:17:36;;;;;;;12.93;8.90;;;;;;;12.02;nan;-24152.72;4899503;29;20191;-72
2022/05/03 02:20:17;;;;;;;15.20;8.40;;;;;;;11.99;nan;-24151.88;4914266;29;20196;-73
2022/05/03 02:22:55;;;;;;;16.67;8.38;;;;;;;12.05;nan;-24153.56;4899007;29;20620;-73
2022/05/03 02:25:35;;;;;;;11.25;8.20;;;;;;;11.74;nan;-24144.84;4899963;29;20192;-74
2022/05/03 02:28:28;;;;;;;13.13;8.60;;;;;;;11.94;nan;-24150.47;4898604;29;20195;-73
2022/05/03 02:30:54;;;;;;;17.50;8.90;;;;;;;11.99;nan;-24151.88;4887911;29;20234;-74
2022/05/03 02:33:31;;;;;;;13.68;8.75;;;;;;;12.01;nan;-24152.44;4899047;29;20252;-75
2022/05/03 02:35:59;;;;;;;14.18;8.48;;;;;;;11.89;nan;-24149.06;4896267;29;20279;-74
2022/05/03 02:39:04;;;;;;;12.20;8.63;;;;;;;11.96;nan;-24151.03;4896137;29;20188;-73
2022/05/03 02:41:38;;;;;;;12.20;8.48;;;;;;;11.50;nan;-24138.22;4885398;29;20203;-74
2022/05/03 02:44:05;;;;;;;12.57;8.18;;;;;;;11.53;nan;-24139.19;4895255;29;20761;-73
2022/05/03 02:46:52;;;;;;;13.55;8.30;;;;;;;11.72;nan;-24144.25;4910794;29;20362;-74
2022/05/03 02:49:24;;;;;;;13.10;8.48;;;;;;;11.64;nan;-24142.00;4895562;29;20266;-74
2022/05/03 02:52:18;;;;;;;14.18;8.77;;;;;;;11.47;nan;-24137.50;4893042;29;20267;-75
2022/05/03 02:54:49;;;;;;;12.88;8.80;;;;;;;11.31;nan;-24133.00;4893545;29;20283;-74
2022/05/03 02:57:36;;;;;;;16.55;8.88;;;;;;;11.43;nan;-24136.22;4895937;29;20283;-73
2022/05/03 03:03:11;;;;;;;15.40;9.40;;;;;;;11.40;nan;-24135.53;4896114;29;20589;-73
2022/05/03 03:05:53;;;;;;;14.43;9.15;;;;;;;11.35;nan;-24134.13;4895295;29;20184;-74
2022/05/03 03:08:19;;;;;;;15.25;9.05;;;;;;;11.36;nan;-24134.41;4890498;29;20184;-74
2022/05/03 03:11:16;;;;;;;15.65;9.60;;;;;;;11.36;nan;-24134.41;4898322;29;20192;-74
2022/05/03 03:14:06;;;;;;;14.20;9.45;;;;;;;11.22;nan;-24130.31;4897139;29;20204;-74
2022/05/03 03:16:33;;;;;;;16.30;10.07;;;;;;;11.00;nan;-24124.41;4893707;29;20584;-74
2022/05/03 03:19:21;;;;;;;18.03;10.33;;;;;;;11.07;nan;-24126.38;4896642;29;20211;-74
2022/05/03 03:21:49;;;;;;;16.03;10.60;;;;;;;11.12;nan;-24127.63;4897042;29;20185;-75
2022/05/03 03:24:17;;;;;;;15.37;10.13;;;;;;;10.96;nan;-24123.25;4889669;29;20180;-74
2022/05/03 03:26:44;;;;;;;15.10;10.55;;;;;;;10.82;nan;-24119.19;4903248;29;20199;-73
2022/05/03 03:29:12;;;;;;;17.80;10.50;;;;;;;11.02;nan;-24124.97;4893212;29;20177;-74
2022/05/03 03:31:40;;;;;;;17.70;9.53;;;;;;;10.87;nan;-24120.72;4906789;29;20315;-73
2022/05/03 03:34:06;;;;;;;15.83;10.17;;;;;;;10.83;nan;-24119.47;4906508;29;20231;-73
2022/05/03 03:36:31;;;;;;;15.00;9.57;;;;;;;10.58;nan;-24112.56;4896098;29;20196;-73
2022/05/03 03:38:57;;;;;;;16.85;9.55;;;;;;;10.79;nan;-24118.47;4894265;29;20303;-73
2022/05/03 03:41:24;;;;;;;16.08;9.93;;;;;;;10.52;nan;-24111.00;4875979;29;20184;-74
2022/05/03 03:43:49;;;;;;;16.75;9.85;;;;;;;10.79;nan;-24118.47;4872226;29;20692;-74
2022/05/03 03:46:14;;;;;;;14.80;9.60;;;;;;;10.90;nan;-24121.44;4892301;29;20252;-74
2022/05/03 03:48:40;;;;;;;19.03;11.30;;;;;;;10.89;nan;-24121.28;4888894;29;20656;-75
2022/05/03 03:51:06;;;;;;;13.83;9.50;;;;;;;10.91;nan;-24121.72;4887579;29;20211;-74
2022/05/03 03:53:32;;;;;;;15.30;8.70;;;;;;;10.89;nan;-24121.16;4887255;29;20184;-75
2022/05/03 03:56:00;;;;;;;15.13;9.85;;;;;;;10.83;nan;-24119.59;4890626;29;20279;-75
2022/05/03 03:58:25;;;;;;;16.05;9.70;;;;;;;10.74;nan;-24116.91;4891594;29;20196;-74
2022/05/03 04:00:51;;;;;;;20.73;10.37;;;;;;;10.85;nan;-24120.03;4905466;29;20231;-75
2022/05/03 04:03:18;;;;;;;19.30;9.57;;;;;;;10.93;nan;-24122.28;4892479;29;20195;-75
2022/05/03 04:05:44;;;;;;;17.52;9.32;;;;;;;10.61;nan;-24113.53;4890582;29;20275;-75
2022/05/03 04:08:09;;;;;;;15.75;9.20;;;;;;;10.70;nan;-24115.78;4874242;29;20227;-75
2022/05/03 04:10:35;;;;;;;14.10;8.68;;;;;;;10.75;nan;-24117.19;4891919;29;20192;-75
2022/05/03 04:13:00;;;;;;;13.73;9.13;;;;;;;10.80;nan;-24118.75;4905746;29;20692;-75
2022/05/03 04:15:26;;;;;;;13.53;9.20;;;;;;;10.80;nan;-24118.75;4892636;29;20196;-76
2022/05/03 04:17:52;;;;;;;13.73;8.40;;;;;;;10.70;nan;-24115.78;4911739;29;20196;-77
2022/05/03 04:20:18;;;;;;;15.93;9.47;;;;;;;10.74;nan;-24116.91;4909690;29;20672;-78
2022/05/03 04:22:44;;;;;;;15.53;8.53;;;;;;;10.48;nan;-24109.88;4907998;29;20259;-73
2022/05/03 04:25:09;;;;;;;15.82;9.18;;;;;;;10.93;nan;-24122.41;4896666;29;20672;-74
2022/05/03 04:27:35;;;;;;;13.45;8.50;;;;;;;10.92;nan;-24122.00;4897366;29;20627;-74
2022/05/03 04:30:01;;;;;;;13.57;9.05;;;;;;;11.06;nan;-24126.09;4897312;29;20627;-74
2022/05/03 04:32:29;;;;;;;15.05;8.18;;;;;;;10.88;nan;-24120.88;4897431;29;20212;-74
2022/05/03 04:34:55;;;;;;;15.68;8.90;;;;;;;11.01;nan;-24124.53;4893190;29;20180;-77
2022/05/03 04:37:21;;;;;;;13.27;8.43;;;;;;;9.53;nan;-24083.31;4913966;29;20179;-78
2022/05/03 04:39:46;;;;;;;15.70;8.32;;;;;;;11.17;nan;-24129.03;4915129;29;20182;-76
2022/05/03 04:42:12;;;;;;;13.23;8.48;;;;;;;11.25;nan;-24131.31;4916434;29;20243;-75
2022/05/03 04:44:38;;;;;;;14.13;8.93;;;;;;;11.42;nan;-24136.09;4916097;29;20183;-76
2022/05/03 04:47:04;;;;;;;20.85;12.77;;;;;;;11.45;nan;-24136.81;4916083;29;20179;-75
2022/05/03 04:49:29;;;;;;;21.27;13.30;;;;;;;11.27;nan;-24131.72;4915859;29;20176;-75
2022/05/03 04:51:55;;;;;;;21.77;13.95;;;;;;;11.61;nan;-24141.16;4898587;29;20217;-76
2022/05/03 04:54:21;;;;;;;26.35;14.70;;;;;;;11.51;nan;-24138.63;4916136;29;20176;-75
2022/05/03 04:57:01;;;;;;;28.10;14.90;;;;;;;11.55;nan;-24139.47;4914956;29;20179;-74
2022/05/03 04:59:26;;;;;;;24.17;14.75;;;;;;;11.30;nan;-24132.72;4908690;29;20180;-73
2022/05/03 05:01:52;;;;;;;23.05;13.60;;;;;;;11.32;nan;-24133.13;4895906;29;20337;-74
2022/05/03 05:04:17;;;;;;;22.08;13.63;;;;;;;11.51;nan;-24138.63;4896231;29;20246;-75
2022/05/03 05:06:43;;;;;;;25.13;14.40;;;;;;;11.61;nan;-24141.16;4896565;29;20267;-74
2022/05/03 05:09:09;;;;;;;12.48;8.20;;;;;;;11.68;nan;-24143.13;4896529;29;20184;-76
2022/05/03 05:11:34;;;;;;;13.70;8.65;;;;;;;11.60;nan;-24141.03;4896374;29;20208;-74
2022/05/03 05:13:59;;;;;;;17.38;10.25;;;;;;;11.40;nan;-24135.53;4896059;29;20172;-73
2022/05/03 05:16:25;;;;;;;18.45;11.02;;;;;;;11.38;nan;-24134.81;4896294;29;20585;-75
2022/05/03 05:18:50;;;;;;;15.55;10.15;;;;;;;11.38;nan;-24134.97;4896221;29;20619;-74
2022/05/03 05:21:16;;;;;;;16.33;9.88;;;;;;;11.15;nan;-24128.34;4896657;29;20206;-75
2022/05/03 05:23:41;;;;;;;9.40;6.22;;;;;;;10.93;nan;-24122.28;4896505;29;20180;-73
2022/05/03 05:26:07;;;;;;;6.68;4.60;;;;;;;11.17;nan;-24128.91;4896288;29;20731;-74
2022/05/03 05:28:32;;;;;;;8.32;4.85;;;;;;;10.84;nan;-24119.75;4888233;29;20187;-75
2022/05/03 05:30:58;;;;;;;5.95;4.55;;;;;;;11.16;nan;-24128.75;4884073;29;20313;-72
2022/05/03 05:33:23;;;;;;;9.45;5.20;;;;;;;11.10;nan;-24127.06;4898860;29;20186;-73
2022/05/03 05:35:50;;;;;;;8.60;6.05;;;;;;;10.73;nan;-24116.78;4900108;29;20571;-73
2022/05/03 05:38:17;;;;;;;7.03;5.20;;;;;;;11.09;nan;-24126.78;4900414;29;20184;-75
2022/05/03 05:40:44;;;;;;;10.75;5.72;;;;;;;10.48;nan;-24109.88;4900389;29;20184;-75
2022/05/03 05:43:09;;;;;;;9.00;6.00;;;;;;;11.26;nan;-24131.44;4899849;29;20176;-73
2022/05/03 05:45:35;;;;;;;7.80;5.00;;;;;;;11.09;nan;-24126.78;4883237;29;20195;-73
2022/05/03 05:48:00;;;;;;;7.75;5.40;;;;;;;11.47;nan;-24137.50;4912861;29;20290;-73
2022/05/03 05:50:27;;;;;;;9.80;5.50;;;;;;;11.31;nan;-24132.84;4899574;29;20183;-74
2022/05/03 05:55:36;;;;;;;8.95;5.13;;;;;;;11.33;nan;-24133.41;4902672;29;20271;-75
2022/05/03 05:58:03;;;;;;;8.50;5.07;;;;;;;11.25;nan;-24131.16;4918907;29;20642;-76
2022/05/03 06:00:29;;;;;;;6.63;5.25;;;;;;;11.70;nan;-24143.69;4901548;29;20250;-76
2022/05/03 06:02:54;;;;;;;7.72;5.13;;;;;;;11.22;nan;-24130.31;4906453;29;20239;-76
2022/05/03 06:05:20;;;;;;;9.52;4.90;;;;;;;11.29;nan;-24132.44;4882252;29;20187;-75
2022/05/03 06:07:45;;;;;;;7.70;5.20;;;;;;;11.54;nan;-24139.34;4898536;29;20184;-74
2022/05/03 06:10:10;;;;;;;6.43;4.70;;;;;;;11.68;nan;-24143.13;4899725;29;20228;-74
2022/05/03 06:12:36;;;;;;;8.75;4.95;;;;;;;11.50;nan;-24138.22;4899455;29;20204;-74
2022/05/03 06:15:01;;;;;;;7.05;4.97;;;;;;;11.42;nan;-24135.97;4913984;29;20687;-74
2022/05/03 06:17:27;;;;;;;7.38;5.43;;;;;;;11.62;nan;-24141.44;4898877;29;20176;-75
2022/05/03 06:19:53;;;;;;;8.45;5.35;;;;;;;11.77;nan;-24145.69;4899487;29;20192;-75
2022/05/03 06:22:19;;;;;;;13.57;8.25;;;;;;;11.73;nan;-24144.56;4913967;29;20199;-76
2022/05/03 06:24:47;;;;;;;8.18;5.50;;;;;;;11.94;nan;-24150.47;4898203;29;20279;-75
2022/05/03 06:27:14;;;;;;;7.20;5.32;;;;;;;12.11;nan;-24155.25;4904077;29;20188;-74
2022/05/03 06:29:41;;;;;;;11.40;5.70;;;;;;;12.03;nan;-24153.00;4895636;29;20192;-74
2022/05/03 06:32:08;;;;;;;8.07;5.78;;;;;;;12.11;nan;-24155.25;4882122;29;20763;-75
2022/05/03 06:34:33;;;;;;;7.60;5.35;;;;;;;12.17;nan;-24156.94;4899500;29;20603;-76
2022/05/03 06:36:59;;;;;;;8.18;4.88;;;;;;;11.90;nan;-24149.34;4898173;29;20172;-76
2022/05/03 06:39:24;;;;;;;7.60;5.10;;;;;;;12.14;nan;-24156.09;4907987;29;20251;-75
2022/05/03 06:41:50;;;;;;;7.40;5.05;;;;;;;11.85;nan;-24148.06;4899545;29;20184;-74
2022/05/03 06:44:16;;;;;;;9.73;5.50;;;;;;;11.88;nan;-24148.78;4897247;29;20263;-76
2022/05/03 06:46:41;;;;;;;10.65;4.78;;;;;;;12.24;nan;-24158.78;4897603;29;20648;-75
2022/05/03 06:49:10;;;;;;;8.95;5.53;;;;;;;12.18;nan;-24157.22;4909786;29;20191;-75
2022/05/03 06:51:35;;;;;;;6.82;5.10;;;;;;;12.24;nan;-24158.91;4895056;29;20303;-75
2022/05/03 06:54:02;;;;;;;7.53;5.50;;;;;;;12.22;nan;-24158.34;4897703;29;20282;-77
2022/05/03 06:56:28;;;;;;;7.70;4.60;;;;;;;12.18;nan;-24157.22;4898119;29;20242;-76
2022/05/03 06:58:53;;;;;;;6.50;4.35;;;;;;;12.34;nan;-24161.59;4898845;29;20204;-77
2022/05/03 07:01:18;;;;;;;5.25;3.97;;;;;;;12.17;nan;-24156.78;4898373;29;20235;-76
2022/05/03 07:03:44;;;;;;;4.93;3.97;;;;;;;12.24;nan;-24158.78;4885059;29;20192;-75
2022/05/03 07:06:09;;;;;;;7.70;4.95;;;;;;;12.03;nan;-24152.84;4913123;29;20263;-75
2022/05/03 07:08:36;;;;;;;6.20;4.68;;;;;;;12.20;nan;-24157.78;4915651;29;20179;-77
2022/05/03 07:11:03;;;;;;;7.50;4.07;;;;;;;12.65;nan;-24170.31;4900335;29;20190;-75
2022/05/03 07:13:29;;;;;;;4.80;4.20;;;;;;;12.48;nan;-24165.38;4917036;29;20172;-77
2022/05/03 07:15:57;;;;;;;5.63;4.10;;;;;;;12.76;nan;-24173.25;4900420;29;20243;-74
2022/05/03 07:23:53;;;;;;;6.15;4.50;;;;;;;12.62;nan;-24169.47;4917479;29;20178;-77
2022/05/03 07:26:19;;;;;;;6.00;4.15;;;;;;;12.95;nan;-24178.59;4917634;29;20176;-76
2022/05/03 07:28:48;;;;;;;4.47;3.72;;;;;;;12.43;nan;-24164.13;4917046;29;20596;-77
2022/05/03 07:31:15;;;;;;;5.55;3.60;;;;;;;12.69;nan;-24171.28;4917378;29;20677;-75
2022/05/03 07:33:40;;;;;;;4.45;3.83;;;;;;;12.83;nan;-24175.22;4908292;29;20726;-75
2022/05/03 07:36:06;;;;;;;5.32;4.00;;;;;;;12.85;nan;-24175.78;4881155;29;20282;-75
2022/05/03 07:38:32;;;;;;;5.15;3.97;;;;;;;13.02;nan;-24180.44;4912328;29;20200;-76
2022/05/03 07:40:57;;;;;;;4.15;3.35;;;;;;;12.81;nan;-24174.66;4898621;29;20244;-74
2022/05/03 07:43:23;;;;;;;5.35;3.83;;;;;;;12.72;nan;-24172.28;4894532;29;20633;-75
2022/05/03 07:45:48;;;;;;;7.53;4.68;;;;;;;12.74;nan;-24172.84;4912277;29;20190;-75
2022/05/03 07:48:14;;;;;;;5.80;3.80;;;;;;;13.10;nan;-24182.81;4910231;29;20549;-76
2022/05/03 07:50:40;;;;;;;5.85;3.88;;;;;;;13.10;nan;-24182.69;4893454;29;20187;-74
2022/05/03 07:53:06;;;;;;;4.90;3.78;;;;;;;13.18;nan;-24184.94;4912283;29;20254;-75
2022/05/03 07:55:31;;;;;;;5.82;4.00;;;;;;;13.11;nan;-24182.97;4914607;29;20737;-76
2022/05/03 07:57:57;;;;;;;6.13;3.67;;;;;;;12.98;nan;-24179.44;4897857;29;20632;-75
2022/05/03 08:00:22;;;;;;;5.20;3.80;;;;;;;12.90;nan;-24177.06;4908462;29;20186;-75
2022/05/03 08:02:48;;;;;;;4.80;3.90;;;;;;;12.64;nan;-24169.88;4908835;29;20192;-74
2022/05/03 08:05:13;;;;;;;5.40;3.75;;;;;;;12.75;nan;-24172.97;4895428;29;20222;-74
2022/05/03 08:07:39;;;;;;;5.15;3.90;;;;;;;12.80;nan;-24174.38;4896195;29;20184;-73
2022/05/03 08:10:05;;;;;;;4.38;3.63;;;;;;;13.20;nan;-24185.63;4895832;29;20192;-68
2022/05/03 08:12:31;;;;;;;4.57;3.53;;;;;;;13.05;nan;-24181.41;4877633;29;20431;-68
2022/05/03 08:14:56;;;;;;;5.63;3.65;;;;;;;12.72;nan;-24172.13;4897176;29;20184;-69
2022/05/03 08:17:25;;;;;;;4.88;3.92;;;;;;;13.14;nan;-24183.81;4909627;29;20616;-69
2022/05/03 08:19:50;;;;;;;4.88;3.90;;;;;;;13.23;nan;-24186.47;4880603;29;20693;-70
2022/05/03 08:22:16;;;;;;;5.47;3.80;;;;;;;;;;4905059;29;20187;-69
2022/05/03 08:24:42;;;;;;;3.80;3.33;;;;;;;12.94;nan;-24178.19;4897139;29;20650;-68
2022/05/03 08:27:08;;;;;;;5.32;3.78;;;;;;;13.07;nan;-24181.84;4880416;29;20196;-68
2022/05/03 08:29:34;;;;;;;7.47;4.32;;;;;;;12.94;nan;-24178.19;4897157;29;20188;-71
2022/05/03 08:32:00;;;;;;;5.57;3.95;;;;;;;12.80;nan;-24174.38;4897027;29;20258;-69
2022/05/03 08:34:26;;;;;;;5.38;3.78;;;;;;;12.61;nan;-24169.19;4906196;29;20183;-69
2022/05/03 08:42:20;;;;;;;4.55;3.78;;;;;;;12.54;nan;-24167.22;4915730;29;20233;-70
2022/05/03 08:44:45;;;;;;;5.90;3.90;;;;;;;12.12;nan;-24155.38;4915131;29;20187;-70
2022/05/03 08:47:11;;;;;;;4.63;3.75;;;;;;;12.54;nan;-24167.22;4913809;29;20639;-69
2022/05/03 08:49:47;;;;;;;4.22;3.40;;;;;;;12.20;nan;-24157.66;4915782;29;20171;-70
2022/05/03 08:52:16;;;;;;;4.88;3.95;;;;;;;12.28;nan;-24159.91;4898756;29;20662;-70
2022/05/03 08:54:43;;;;;;;5.03;3.90;;;;;;;12.52;nan;-24166.66;4895102;29;20690;-71
2022/05/03 08:57:08;;;;;;;5.07;3.67;;;;;;;12.39;nan;-24163.13;4896640;29;20184;-69
2022/05/03 08:59:36;;;;;;;4.80;3.90;;;;;;;12.28;nan;-24160.03;4896550;29;20191;-68
2022/05/03 09:02:01;;;;;;;6.72;4.32;;;;;;;12.62;nan;-24169.31;4896310;29;20648;-71
2022/05/03 09:04:27;;;;;;;4.90;3.67;;;;;;;12.55;nan;-24167.50;4913934;29;20214;-70
2022/05/03 09:06:52;;;;;;;3.95;3.55;;;;;;;12.80;nan;-24174.38;4914954;29;20581;-69
2022/05/03 09:09:20;;;;;;;5.40;3.13;;;;;;;12.30;nan;-24160.47;4908454;29;20678;-68
2022/05/03 09:11:51;;;;;;;3.97;3.40;;;;;;;12.32;nan;-24161.16;4895424;29;20195;-69
2022/05/03 09:14:36;;;;;;;4.05;3.50;;;;;;;12.37;nan;-24162.44;4895320;29;20206;-68
2022/05/03 09:17:02;;;;;;;4.03;3.42;;;;;;;12.52;nan;-24166.66;4897108;29;20180;-70
2022/05/03 09:19:28;;;;;;;3.92;3.40;;;;;;;12.79;nan;-24174.09;4914372;29;20187;-70
2022/05/03 09:24:58;;;;;;;4.38;3.40;;;;;;;13.22;nan;-24186.19;4915570;29;20222;-69
2022/05/03 09:27:26;;;;;;;4.90;3.40;;;;;;;13.30;nan;-24188.16;4904250;29;20188;-67
2022/05/03 09:30:04;;;;;;;7.47;4.40;;;;;;;13.09;nan;-24182.53;4896895;29;20188;-68
2022/05/03 09:32:40;;;;;;;3.92;3.53;;;;;;;13.02;nan;-24180.56;4896633;29;20256;-67
2022/05/03 09:35:26;;;;;;;6.72;4.30;;;;;;;13.24;nan;-24186.75;4879766;29;20254;-69
2022/05/03 09:37:52;;;;;;;5.70;3.80;;;;;;;13.64;nan;-24197.72;4909714;29;20182;-69
2022/05/03 09:40:17;;;;;;;3.95;3.30;;;;;;;13.30;nan;-24188.16;4915979;29;20541;-67
2022/05/03 09:42:51;;;;;;;3.70;3.30;;;;;;;12.77;nan;-24173.69;4915325;29;20179;-67
2022/05/03 09:45:25;;;;;;;4.50;3.22;;;;;;;12.94;nan;-24178.31;4915134;29;20171;-68
2022/05/03 09:47:56;;;;;;;4.57;3.05;;;;;;;13.15;nan;-24184.09;4915816;29;20562;-68
2022/05/03 09:50:27;;;;;;;4.45;3.05;;;;;;;13.48;nan;-24193.34;4914119;29;20191;-67
2022/05/03 09:52:53;;;;;;;3.90;3.25;;;;;;;13.07;nan;-24181.97;4914413;29;20301;-68
2022/05/03 09:55:30;;;;;;;3.38;3.08;;;;;;;13.15;nan;-24184.09;4913984;29;20723;-67
2022/05/03 09:58:00;;;;;;;5.22;3.38;;;;;;;13.67;nan;-24198.56;4914896;29;20242;-68
2022/05/03 10:00:27;;;;;;;4.47;3.35;;;;;;;13.22;nan;-24186.19;4914356;29;20282;-67
2022/05/03 10:02:53;;;;;;;3.78;3.13;;;;;;;13.01;nan;-24180.28;4915869;29;20541;-69
2022/05/03 10:05:21;;;;;;;5.57;3.92;;;;;;;13.49;nan;-24193.50;4916441;29;20196;-68
2022/05/03 10:07:51;;;;;;;3.22;2.92;;;;;;;13.03;nan;-24180.84;4916252;29;20168;-67
2022/05/03 10:10:17;;;;;;;4.10;3.20;;;;;;;12.83;nan;-24175.38;4915460;29;20186;-66
2022/05/03 10:12:43;;;;;;;4.07;3.10;;;;;;;12.92;nan;-24177.75;4914777;29;20191;-68
2022/05/03 10:15:10;;;;;;;3.95;3.03;;;;;;;13.02;nan;-24180.56;4915271;29;20183;-68
2022/05/03 10:20:43;;;;;;;5.00;2.95;;;;;;;13.05;nan;-24181.41;4918758;29;20190;-68
2022/05/03 10:23:20;;;;;;;11.75;4.22;;;;;;;13.09;nan;-24182.41;4918479;29;20258;-68
2022/05/03 10:25:45;;;;;;;4.20;3.00;;;;;;;13.42;nan;-24191.66;4918746;29;20199;-69
2022/05/03 10:28:11;;;;;;;5.45;3.83;;;;;;;13.59;nan;-24196.44;4918381;29;20689;-69
2022/05/03 10:30:38;;;;;;;4.70;3.92;;;;;;;13.60;nan;-24196.59;4919057;29;20167;-67
2022/05/03 10:33:19;;;;;;;4.15;3.30;;;;;;;14.12;nan;-24211.19;4918533;29;20697;-67
2022/05/03 10:35:45;;;;;;;4.35;3.58;;;;;;;14.15;nan;-24212.03;4918269;29;20214;-69
2022/05/03 10:38:10;;;;;;;3.05;2.75;;;;;;;14.60;nan;-24224.38;4916819;29;20199;-69
2022/05/03 10:40:48;;;;;;;3.67;2.90;;;;;;;15.31;nan;-24244.13;4918262;29;20650;-69
2022/05/03 10:43:26;;;;;;;3.70;2.88;;;;;;;15.45;nan;-24248.06;4917703;29;20557;-68
2022/05/03 10:45:52;;;;;;;6.22;2.95;;;;;;;16.04;nan;-24264.28;4917293;29;20611;-68
2022/05/03 10:48:29;;;;;;;3.92;2.83;;;;;;;15.94;nan;-24261.50;4917614;29;20167;-67
2022/05/03 10:51:05;;;;;;;3.35;3.03;;;;;;;16.46;nan;-24275.88;4917629;29;20239;-68
2022/05/03 10:53:36;;;;;;;3.55;2.75;;;;;;;16.96;nan;-24289.59;4918151;29;20175;-69
2022/05/03 10:56:16;;;;;;;4.00;3.35;;;;;;;17.07;nan;-24292.66;4917771;29;20246;-71
2022/05/03 10:59:06;;;;;;;4.43;2.90;;;;;;;17.33;nan;-24299.91;4900515;29;20351;-69
2022/05/03 11:01:33;;;;;;;4.05;2.75;;;;;;;17.47;nan;-24303.81;4910267;29;20309;-70
2022/05/03 11:03:59;;;;;;;3.30;2.83;;;;;;;17.89;nan;-24315.28;4900537;29;20191;-69
2022/05/03 11:06:27;;;;;;;3.42;2.78;;;;;;;17.56;nan;-24306.19;4917206;29;20179;-70
2022/05/03 11:09:05;;;;;;;3.55;2.65;;;;;;;17.83;nan;-24313.75;4917549;29;20214;-69
2022/05/03 11:11:40;;;;;;;3.08;2.78;;;;;;;18.09;nan;-24320.84;4897796;29;20230;-69
2022/05/03 11:14:11;;;;;;;3.67;3.15;;;;;;;18.26;nan;-24325.59;4897424;29;20628;-69
2022/05/03 11:16:37;;;;;;;4.30;3.35;;;;;;;18.24;nan;-24324.88;4898467;29;20180;-68
2022/05/03 11:19:10;;;;;;;3.35;2.90;;;;;;;18.47;nan;-24331.44;4898365;29;20670;-68
2022/05/03 11:21:36;;;;;;;3.10;2.80;;;;;;;18.53;nan;-24332.97;4897142;29;20192;-69
2022/05/03 11:24:01;;;;;;;3.13;2.83;;;;;;;18.70;nan;-24337.56;4898345;29;20683;-69
2022/05/03 11:26:28;;;;;;;3.13;2.50;;;;;;;18.07;nan;-24320.44;4896874;29;20678;-68
2022/05/03 11:28:57;;;;;;;4.00;2.70;;;;;;;18.14;nan;-24322.25;4897739;29;20720;-68
2022/05/03 11:31:25;;;;;;;3.63;2.90;;;;;;;18.62;nan;-24335.34;4911538;29;20638;-68
2022/05/03 11:33:58;;;;;;;4.45;2.72;;;;;;;18.49;nan;-24332.00;4897392;29;20180;-69
2022/05/03 11:36:25;;;;;;;3.45;2.83;;;;;;;18.50;nan;-24332.13;4906811;29;20655;-69
2022/05/03 11:38:52;;;;;;;3.20;2.78;;;;;;;17.64;nan;-24308.56;4916833;29;20174;-68
2022/05/03 11:41:25;;;;;;;3.55;2.70;;;;;;;18.01;nan;-24318.75;4916769;29;20176;-69
2022/05/03 11:43:51;;;;;;;4.85;3.20;;;;;;;18.61;nan;-24335.19;4916808;29;20183;-70
2022/05/03 11:46:18;;;;;;;3.33;2.78;;;;;;;18.42;nan;-24330.03;4916573;29;20232;-69
2022/05/03 11:48:50;;;;;;;3.63;2.47;;;;;;;18.12;nan;-24321.69;4916522;29;20176;-68
2022/05/03 11:56:47;;;;;;;3.10;2.75;;;;;;;18.71;nan;-24337.84;4904276;29;20190;-68
2022/05/03 11:59:14;;;;;;;3.35;2.78;;;;;;;18.60;nan;-24334.78;4897832;29;20234;-68
2022/05/03 12:01:40;;;;;;;3.42;2.50;;;;;;;18.98;nan;-24345.50;4897833;29;20232;-69
2022/05/03 12:04:08;;;;;;;4.22;2.50;;;;;;;18.83;nan;-24341.31;4897741;29;20260;-69
2022/05/03 12:06:44;;;;;;;3.03;2.72;;;;;;;18.83;nan;-24341.31;4915587;29;20183;-70
2022/05/03 12:09:19;;;;;;;2.83;2.58;;;;;;;18.58;nan;-24334.38;4915055;29;20187;-70
2022/05/03 12:14:38;;;;;;;3.38;2.50;;;;;;;18.39;nan;-24329.22;4881710;29;20272;-68
2022/05/03 12:17:04;;;;;;;3.22;2.92;;;;;;;19.11;nan;-24348.97;4897053;29;20263;-69
2022/05/03 12:19:37;;;;;;;3.42;3.00;;;;;;;18.98;nan;-24345.50;4899253;29;20180;-69
2022/05/03 12:22:12;;;;;;;3.40;3.10;;;;;;;19.21;nan;-24351.75;4912490;29;20190;-69
2022/05/03 12:24:45;;;;;;;4.53;2.97;;;;;;;18.91;nan;-24343.41;4896556;29;20666;-69
2022/05/03 12:27:12;;;;;;;4.28;3.30;;;;;;;19.21;nan;-24351.63;4904358;29;20331;-69